KMWA/MWA METAR and TAF weather

Enter ICAO airport designator
Station Type Date Time Source
KMWA METAR 2021/01/27 13:53 UTC NOAA

KMWA 271353Z 02006KT 10SM BKN012 OVC028 M01/M02 A3020


Station Type Date Time Source
KMWA Decoded METAR 2021/01/27 13:53 UTC NOAA

Marion, Williamson County Regional Airport, IL, United States (KMWA) 37-45-01N 089-00-04W
Jan 27, 2021 - 08:53 AM EST / 2021.01.27 1353 UTC
Wind: from the NNE (020 degrees) at 7 MPH (6 KT):0
Visibility: 10 mile(s):0
Sky conditions: overcast
Temperature: 30 F (-1 C)
Windchill: 23 F (-5 C):1
Dew Point: 28 F (-2 C)
Relative Humidity: 92%
Pressure (altimeter): 30.2 in. Hg (1022 hPa)
ob: KMWA 271353Z 02006KT 10SM BKN012 OVC028 M01/M02 A3020
cycle: 14

Station Type Date Time Source
KMWA TAF UTC NOAA

Error!

Example: see airport list